Flight Track Log - Related Links

Times and Time Zones

All times are in EDT time to prevent confusion due to time zone crossing. See the AAL2345 flight status page for this flight to view local times or setup timezone preferences in your user account.


Time Position Orientation Groundspeed Altitude Reporting Facility
EDT Latitude Longitude Course Direction KTS MPH feet Rate Location/Type
Sat 08:34:41 PM 42.0333 -87.9833 253° West 204 235 2,600  Level Chicago TRACON
Sat 08:35:41 PM 42.0833 -88.0333 323° Northwest 259 298 4,800 2,429 Climbing Chicago TRACON
Sat 08:36:00 PM 41.8821 -88.3198 242° Southwest  Level FlightAware Approximate
Sat 08:37:00 PM 41.8392 -88.4541 255° West  Level FlightAware Approximate
Sat 08:37:24 PM 42.0714 -88.1881 264° West 283 326 9,200  Level Chicago Center
Sat 08:38:00 PM 41.8086 -88.5953 254° West  Level FlightAware Approximate
Sat 08:38:26 PM 42.0353 -88.2806 242° Southwest 283 326 12,200  Level Chicago Center
Sat 08:39:00 PM 41.7774 -88.7362 253° West  Level FlightAware Approximate
Sat 08:39:27 PM 41.9739 -88.3558 222° Southwest 298 343 13,800  Level Chicago Center
Sat 08:40:29 PM 41.9094 -88.4303 221° Southwest 307 353 14,000 98 Climbing Chicago Center
Sat 08:41:30 PM 41.8269 -88.5247 220° Southwest 325 374 14,000  Level Chicago Center
Sat 08:42:32 PM 41.7589 -88.6044 221° Southwest 328 377 14,000 97 Level Chicago Center
Sat 08:43:34 PM 41.6931 -88.6861 223° Southwest 327 376 14,200 976 Climbing Chicago Center
Sat 08:44:35 PM 41.6447 -88.7822 236° Southwest 316 364 16,000 1,561 Climbing Chicago Center
Sat 08:45:37 PM 41.6108 -88.8961 248° West 338 389 17,400 1,659 Climbing Chicago Center
Sat 08:46:38 PM 41.5864 -89.0208 255° West 349 402 19,400 1,659 Climbing Chicago Center
Sat 08:47:40 PM 41.5586 -89.1806 257° West 371 427 20,800 1,694 Climbing Chicago Center
Sat 08:48:42 PM 41.5367 -89.3208 258° West 387 445 22,900 1,756 Climbing Chicago Center
Sat 08:49:43 PM 41.5208 -89.4428 260° West 382 440 24,400 1,561 Climbing Chicago Center
Sat 08:50:45 PM 41.4931 -89.6125 258° West 392 451 26,100 1,463 Climbing Chicago Center
Sat 08:51:46 PM 41.4692 -89.7558 258° West 397 457 27,400 1,268 Climbing Chicago Center
Sat 08:52:48 PM 41.4461 -89.9003 258° West 399 459 28,700 1,268 Climbing Chicago Center
Sat 08:53:49 PM 41.4228 -90.0397 257° West 391 450 30,000 634 Climbing Chicago Center
Sat 08:54:51 PM 41.4000 -90.1797 258° West 390 449 30,000  Level Chicago Center
Sat 08:55:52 PM 41.3761 -90.3231 258° West 396 456 30,000  Level Chicago Center
Sat 08:56:54 PM 41.3522 -90.4636 257° West 394 453 30,000  Level Chicago Center
Sat 08:57:55 PM 41.3197 -90.6353 256° West 401 461 30,000  Level Chicago Center
Sat 08:58:57 PM 41.2544 -90.7533 234° Southwest 395 455 30,000  Level Chicago Center
Sat 08:59:58 PM 41.1858 -90.8675 231° Southwest 398 458 30,000  Level Chicago Center
Sat 09:01:02 PM 41.1178 -90.9839 232° Southwest 401 461 30,000  Level Chicago Center
Sat 09:02:04 PM 41.0486 -91.0986 231° Southwest 399 459 30,000  Level Chicago Center
Sat 09:03:05 PM 40.9797 -91.2131 231° Southwest 399 459 30,000  Level Chicago Center
Sat 09:04:07 PM 40.9092 -91.3311 232° Southwest 400 460 30,000  Level Chicago Center
Sat 09:05:08 PM 40.8264 -91.4694 232° Southwest 403 464 30,000  Level Chicago Center
Sat 09:06:10 PM 40.7567 -91.5856 232° Southwest 406 467 30,000  Level Chicago Center
Sat 09:07:12 PM 40.6856 -91.7000 231° Southwest 407 468 30,000 293 Level Chicago Center
Sat 09:08:13 PM 40.6158 -91.8139 231° Southwest 405 466 30,600 829 Climbing Chicago Center
Sat 09:09:15 PM 40.5475 -91.9247 231° Southwest 397 457 31,700 683 Climbing Chicago Center
Sat 09:10:16 PM 40.4803 -92.0356 231° Southwest 393 452 32,000 178 Climbing Chicago Center
Sat 09:10:56 PM 40.4253 -92.1250 231° Southwest 393 452 32,000  Level Kansas City Center
Sat 09:11:56 PM 40.3564 -92.2356 231° Southwest 393 452 32,000  Level Kansas City Center
Sat 09:13:00 PM 40.2858 -92.3486 231° Southwest 397 457 32,000  Level Kansas City Center
Sat 09:14:00 PM 40.2097 -92.4675 230° Southwest 402 463 32,000  Level Kansas City Center
Sat 09:15:00 PM 40.1419 -92.5783 231° Southwest 407 468 32,000  Level Kansas City Center
Sat 09:16:01 PM 40.0553 -92.6758 221° Southwest 405 466 32,000  Level Kansas City Center
Sat 09:17:03 PM 39.9658 -92.7667 218° Southwest 407 468 32,000  Level Kansas City Center
Sat 09:18:04 PM 39.8806 -92.8561 219° Southwest 401 461 32,000  Level Kansas City Center
Sat 09:19:05 PM 39.7944 -92.9464 219° Southwest 399 459 32,000  Level Kansas City Center
Sat 09:20:03 PM 39.7081 -93.0383 219° Southwest 403 464 32,000  Level Kansas City Center
Sat 09:21:05 PM 39.6194 -93.1272 218° Southwest 405 466 32,000  Level Kansas City Center
Sat 09:22:05 PM 39.5325 -93.2178 219° Southwest 404 465 32,000  Level Kansas City Center
Sat 09:23:08 PM 39.4267 -93.3272 219° Southwest 407 468 32,000  Level Kansas City Center
Sat 09:24:09 PM 39.3378 -93.4183 218° Southwest 410 472 32,000  Level Kansas City Center
Sat 09:25:08 PM 39.2553 -93.5033 219° Southwest 415 478 32,000  Level Kansas City Center
Sat 09:26:11 PM 39.1528 -93.6081 218° Southwest 419 482 32,000  Level Kansas City Center
Sat 09:27:12 PM 39.0669 -93.6967 219° Southwest 415 478 32,000  Level Kansas City Center
Sat 09:28:12 PM 38.9783 -93.7853 218° Southwest 418 481 32,000  Level Kansas City Center
Sat 09:29:14 PM 38.8772 -93.8878 218° Southwest 414 476 32,000  Level Kansas City Center
Sat 09:30:13 PM 38.7894 -93.9767 218° Southwest 417 480 32,000  Level Kansas City Center
Sat 09:31:15 PM 38.7033 -94.0642 218° Southwest 414 476 32,000  Level Kansas City Center
Sat 09:32:17 PM 38.6017 -94.1650 218° Southwest 412 474 32,000  Level Kansas City Center
Sat 09:33:17 PM 38.5211 -94.2647 224° Southwest 419 482 32,000  Level Kansas City Center
Sat 09:34:16 PM 38.4428 -94.3675 226° Southwest 421 484 32,000  Level Kansas City Center
Sat 09:35:18 PM 38.3514 -94.4875 226° Southwest 422 486 32,000  Level Kansas City Center
Sat 09:36:18 PM 38.2733 -94.5911 226° Southwest 422 486 32,000  Level Kansas City Center
Sat 09:37:21 PM 38.1947 -94.6956 226° Southwest 424 488 32,000  Level Kansas City Center
Sat 09:38:22 PM 38.1028 -94.8144 226° Southwest 423 487 32,000  Level Kansas City Center
Sat 09:39:23 PM 38.0233 -94.9211 227° Southwest 428 493 32,000  Level Kansas City Center
Sat 09:40:23 PM 37.9450 -95.0253 226° Southwest 427 491 32,000  Level Kansas City Center
Sat 09:41:26 PM 37.8503 -95.1525 227° Southwest 431 496 32,000  Level Kansas City Center
Sat 09:42:23 PM 37.7681 -95.2628 227° Southwest 431 496 32,000  Level Kansas City Center
Sat 09:43:24 PM 37.6864 -95.3767 228° Southwest 435 501 32,000  Level Kansas City Center
Sat 09:44:25 PM 37.6053 -95.4867 227° Southwest 433 498 32,000  Level Kansas City Center
Sat 09:45:26 PM 37.5236 -95.5994 228° Southwest 434 499 32,000  Level Kansas City Center
Sat 09:46:26 PM 37.4447 -95.7175 230° Southwest 437 503 32,000  Level Kansas City Center
Sat 09:47:27 PM 37.3622 -95.8331 228° Southwest 442 509 32,000  Level Kansas City Center
Sat 09:48:29 PM 37.2783 -95.9489 228° Southwest 448 516 32,000  Level Kansas City Center
Sat 09:49:29 PM 37.1928 -96.0664 228° Southwest 453 521 32,000  Level Kansas City Center
Sat 09:50:30 PM 37.1064 -96.1817 227° Southwest 455 524 32,000  Level Kansas City Center
Sat 09:51:33 PM 36.9872 -96.2344 199° South 460 529 32,000  Level Kansas City Center
Sat 09:52:33 PM 36.8561 -96.2406 182° South 477 549 32,000  Level Kansas City Center
Sat 09:53:33 PM 36.7133 -96.1564 155° Southeast 479 551 32,000  Level Kansas City Center
Sat 09:54:34 PM 36.5956 -96.0742 151° Southeast 487 560 32,000  Level Kansas City Center
Sat 09:55:35 PM 36.4708 -96.0253 163° South 474 545 32,000  Level Kansas City Center
Sat 09:56:36 PM 36.3500 -95.9683 159° South 468 539 32,000  Level Kansas City Center
Sat 09:57:36 PM 36.2292 -95.9125 160° South 467 537 32,000  Level Kansas City Center
Sat 09:58:40 PM 36.1083 -95.8600 161° South 466 536 32,000  Level Kansas City Center
Sat 09:59:40 PM 35.9808 -95.8344 171° South 467 537 32,000  Level Kansas City Center
Sat 10:00:44 PM 35.8556 -95.8061 170° South 463 533 32,000 -144 Level Kansas City Center
Sat 10:01:45 PM 35.7042 -95.7711 169° South 462 532 31,700 -504 Descending Kansas City Center
Sat 10:02:43 PM 35.5794 -95.7414 169° South 459 528 31,000 -420 Descending Kansas City Center
Sat 10:03:25 PM 35.5056 -95.7281 172° South 468 539 31,000  Level Fort Worth Center
Sat 10:04:25 PM 35.3800 -95.6975 169° South 468 539 31,000  Level Fort Worth Center
Sat 10:05:25 PM 35.2564 -95.6669 169° South 468 539 31,000  Level Fort Worth Center
Sat 10:06:25 PM 35.1328 -95.6136 161° South 468 539 31,000  Level Fort Worth Center
Sat 10:07:25 PM 35.0108 -95.5631 161° South 468 539 31,000  Level Fort Worth Center
Sat 10:08:25 PM 34.8872 -95.5100 161° South 468 539 31,000 -150 Level Fort Worth Center
Sat 10:09:25 PM 34.7653 -95.4547 160° South 468 539 30,700 -850 Descending Fort Worth Center
Sat 10:10:25 PM 34.6394 -95.4222 168° South 468 539 29,300 -1,350 Descending Fort Worth Center
Sat 10:11:25 PM 34.5175 -95.4956 206° Southwest 423 487 28,000 -650 Descending Fort Worth Center
Sat 10:12:25 PM 34.4103 -95.5783 213° Southwest 433 498 28,000 -50 Level Fort Worth Center
Sat 10:13:25 PM 34.3031 -95.6586 212° Southwest 440 506 27,900 -850 Descending Fort Worth Center
Sat 10:14:25 PM 34.1997 -95.7411 213° Southwest 455 524 26,300 -1,800 Descending Fort Worth Center
Sat 10:15:25 PM 34.0964 -95.8158 211° Southwest 443 510 24,300 -1,950 Descending Fort Worth Center
Sat 10:16:25 PM 34.0158 -95.8775 212° Southwest 425 489 22,400 -2,017 Descending Fort Worth Center
Sat 10:17:24 PM 33.9186 -95.9492 211° Southwest 415 478 20,300 -1,900 Descending Fort Worth Center
Sat 10:18:25 PM 33.8275 -96.0158 211° Southwest 402 463 18,600 -1,950 Descending Fort Worth Center
Sat 10:19:24 PM 33.7344 -96.0872 213° Southwest 387 445 16,400 -2,100 Descending Fort Worth Center
Sat 10:20:25 PM 33.6578 -96.1458 212° Southwest 374 430 14,400 -1,983 Descending Fort Worth Center
Sat 10:21:25 PM 33.5644 -96.2169 212° Southwest 368 423 12,400 -1,650 Descending Fort Worth Center
Sat 10:22:25 PM 33.5006 -96.2825 221° Southwest 356 410 11,100 -706 Descending Fort Worth Center
Sat 10:23:24 PM 33.4261 -96.3681 224° Southwest 342 394 11,000 -400 Descending Fort Worth Center
Sat 10:24:25 PM 33.3764 -96.4333 228° Southwest 320 368 10,300 -1,150 Descending Fort Worth Center
Sat 10:25:24 PM 33.3272 -96.5283 238° Southwest 302 348 8,700 -1,618 Descending Fort Worth Center
Sat 10:25:54 PM 33.3000 -96.5667 230° Southwest 289 333 7,900 -1,412 Descending Dallas / Fort Worth TRACON
Sat 10:26:49 PM 33.2667 -96.6333 239° Southwest 285 328 6,700 -1,451 Descending Dallas / Fort Worth TRACON
Sat 10:27:25 PM 33.2383 -96.6833 236° Southwest 283 326 5,700 -1,063 Descending Fort Worth Center
Sat 10:28:25 PM 33.1969 -96.7581 237° Southwest 283 326 5,000 -500 Descending Fort Worth Center
Sat 10:29:25 PM 33.1597 -96.8228 236° Southwest 254 292 4,700 -756 Descending Fort Worth Center
Sat 10:30:24 PM 33.1225 -96.8825 233° Southwest 247 284 3,500 -857 Descending Fort Worth Center
Sat 10:31:24 PM 33.0872 -96.9447 236° Southwest 232 267 3,000 -500 Descending Fort Worth Center

Login

Don't have an account? Register now (free) for customized features, flight alerts, and more!